Time;durP1;ratioP1;P1;durP2;ratioP2;P2;SDS_P1;SDS_P2;PMS_P1;PMS_P2;Temp;Humidity;BMP_temperature;BMP_pressure;BME280_temperature;BME280_humidity;BME280_pressure;Samples;Min_cycle;Max_cycle;Signal;HPM_P1;HPM_P2
2022/06/20 00:01:01;;;;;;;3.30;1.10;;;16.60;57.30;;;;;;5051795;28;20040;-63
2022/06/20 00:03:30;;;;;;;4.93;1.00;;;16.50;57.30;;;;;;5051423;28;20119;-62
2022/06/20 00:05:56;;;;;;;2.50;0.63;;;16.50;57.20;;;;;;5050654;28;20048;-66
2022/06/20 00:08:22;;;;;;;3.13;0.98;;;16.50;57.20;;;;;;5033787;28;20041;-66
2022/06/20 00:10:48;;;;;;;5.32;1.13;;;16.50;57.30;;;;;;5052002;28;20037;-66
2022/06/20 00:13:34;;;;;;;4.60;1.17;;;16.50;57.30;;;;;;5050742;28;20499;-66
2022/06/20 00:16:01;;;;;;;4.93;1.38;;;16.50;57.40;;;;;;5050614;28;20073;-66
2022/06/20 00:18:28;;;;;;;4.13;1.00;;;16.40;57.40;;;;;;5034142;28;20387;-66
2022/06/20 00:20:53;;;;;;;2.92;0.80;;;16.40;57.40;;;;;;5037634;28;20047;-66
2022/06/20 00:23:19;;;;;;;3.13;1.00;;;16.40;57.80;;;;;;5055311;28;20029;-66
2022/06/20 00:25:45;;;;;;;6.25;1.30;;;16.40;57.50;;;;;;5053710;28;20445;-66
2022/06/20 00:28:13;;;;;;;5.55;1.38;;;16.30;57.50;;;;;;5055213;28;20079;-66
2022/06/20 00:30:39;;;;;;;3.20;0.93;;;16.30;57.60;;;;;;5055209;28;20484;-66
2022/06/20 00:33:05;;;;;;;4.60;1.20;;;16.30;57.70;;;;;;5055480;28;20099;-66
2022/06/20 00:35:32;;;;;;;4.10;0.95;;;16.30;57.80;;;;;;5054752;28;20112;-66
2022/06/20 00:38:00;;;;;;;3.38;1.25;;;16.30;57.80;;;;;;5059621;28;20559;-66
2022/06/20 00:40:40;;;;;;;4.72;1.30;;;16.20;57.90;;;;;;5051877;28;20041;-66
2022/06/20 00:43:11;;;;;;;3.38;1.13;;;16.20;58.00;;;;;;5053630;28;20036;-66
2022/06/20 00:45:43;;;;;;;4.80;1.20;;;16.20;58.10;;;;;;5055540;28;20037;-66
2022/06/20 00:48:22;;;;;;;3.60;0.90;;;16.20;58.10;;;;;;5054970;28;20045;-66
2022/06/20 00:50:50;;;;;;;5.13;1.15;;;16.20;58.20;;;;;;5053186;28;20049;-66
2022/06/20 00:53:34;;;;;;;5.45;1.17;;;16.10;58.30;;;;;;5054795;28;20404;-66
2022/06/20 00:56:07;;;;;;;5.47;1.20;;;16.10;58.30;;;;;;5052869;28;20061;-66
2022/06/20 00:58:58;;;;;;;3.65;1.40;;;16.10;58.40;;;;;;5054935;28;20045;-66
2022/06/20 01:01:38;;;;;;;2.92;1.25;;;16.10;58.50;;;;;;5053621;28;20450;-66
2022/06/20 01:04:28;;;;;;;3.92;1.30;;;16.10;58.60;;;;;;5053431;28;20047;-66
2022/06/20 01:06:56;;;;;;;2.47;1.00;;;16.10;58.60;;;;;;5049171;28;20060;-66
2022/06/20 01:09:27;;;;;;;4.97;1.08;;;16.10;58.60;;;;;;5036762;28;20061;-66
2022/06/20 01:12:02;;;;;;;2.40;0.85;;;16.10;58.70;;;;;;5054316;28;20120;-66
2022/06/20 01:14:38;;;;;;;3.28;1.30;;;16.10;58.70;;;;;;5054087;28;20069;-66
2022/06/20 01:17:19;;;;;;;2.30;0.93;;;16.10;58.80;;;;;;5053286;28;20552;-66
2022/06/20 01:20:04;;;;;;;5.68;1.42;;;16.10;58.70;;;;;;5054236;28;20040;-66
2022/06/20 01:23:03;;;;;;;3.05;1.20;;;16.10;58.80;;;;;;5044202;28;20045;-66
2022/06/20 01:25:39;;;;;;;4.47;1.00;;;16.10;58.80;;;;;;5044363;28;20049;-66
2022/06/20 01:28:13;;;;;;;4.03;1.05;;;16.00;58.80;;;;;;5053995;28;20084;-66
2022/06/20 01:30:41;;;;;;;;;;;16.00;58.90;;;;;;5053863;28;20132;-67
2022/06/20 01:33:06;;;;;;;2.72;1.23;;;16.00;58.70;;;;;;5053537;28;20269;-66
2022/06/20 01:38:20;;;;;;;2.38;1.25;;;16.00;59.10;;;;;;5053971;28;20127;-66
2022/06/20 01:43:33;;;;;;;4.40;1.45;;;16.00;59.10;;;;;;5053929;28;20033;-66
2022/06/20 01:46:00;;;;;;;2.95;1.10;;;16.00;59.10;;;;;;5054032;28;20101;-62
2022/06/20 01:48:29;;;;;;;3.42;1.30;;;16.00;59.20;;;;;;5052886;28;20041;-63
2022/06/20 01:50:54;;;;;;;2.53;1.00;;;15.90;59.60;;;;;;5053364;28;20052;-62
2022/06/20 01:53:26;;;;;;;3.83;1.40;;;15.90;59.20;;;;;;5052914;28;20033;-63
2022/06/20 01:55:54;;;;;;;3.15;1.02;;;15.90;59.20;;;;;;5052333;28;20124;-62
2022/06/20 01:58:33;;;;;;;3.78;0.93;;;15.90;59.20;;;;;;5053411;28;20068;-62
2022/06/20 02:01:00;;;;;;;3.50;1.08;;;15.90;59.20;;;;;;5053386;28;20075;-62
2022/06/20 02:03:28;;;;;;;4.05;1.10;;;15.90;59.20;;;;;;5052872;28;20076;-62
2022/06/20 02:05:55;;;;;;;3.42;1.00;;;15.90;59.20;;;;;;5052578;28;20440;-63
2022/06/20 02:08:23;;;;;;;4.35;1.30;;;15.90;59.20;;;;;;5051904;28;20079;-62
2022/06/20 02:11:05;;;;;;;4.10;1.38;;;15.90;59.20;;;;;;5033845;28;20053;-62
2022/06/20 02:13:34;;;;;;;2.85;1.08;;;15.90;59.20;;;;;;5045066;28;20103;-62
2022/06/20 02:16:04;;;;;;;3.53;1.17;;;15.90;59.20;;;;;;5051208;28;20049;-62
2022/06/20 02:18:32;;;;;;;2.95;0.90;;;15.90;59.20;;;;;;5065396;28;20076;-66
2022/06/20 02:21:02;;;;;;;2.15;0.98;;;15.80;59.10;;;;;;5047330;28;20120;-66
2022/06/20 02:23:32;;;;;;;4.22;1.27;;;15.80;59.10;;;;;;5053243;28;20083;-66
2022/06/20 02:26:00;;;;;;;3.92;1.45;;;15.80;59.00;;;;;;5051869;28;20069;-66
2022/06/20 02:28:37;;;;;;;3.58;1.30;;;15.80;59.00;;;;;;5052875;28;20057;-66
2022/06/20 02:31:06;;;;;;;4.60;1.38;;;15.80;59.00;;;;;;5052727;28;20036;-66
2022/06/20 02:33:32;;;;;;;3.83;1.20;;;15.80;58.90;;;;;;5053240;28;20091;-66
2022/06/20 02:35:59;;;;;;;4.32;1.40;;;15.80;58.90;;;;;;5051462;28;20041;-66
2022/06/20 02:38:25;;;;;;;4.68;1.60;;;15.80;58.80;;;;;;5053010;28;20033;-66
2022/06/20 02:40:55;;;;;;;3.30;1.17;;;15.80;58.80;;;;;;5034904;28;20044;-66
2022/06/20 02:43:38;;;;;;;2.42;0.93;;;15.70;58.70;;;;;;5052508;28;20392;-66
2022/06/20 02:46:08;;;;;;;1.70;0.75;;;15.70;58.70;;;;;;5052474;28;20562;-66
2022/06/20 02:48:35;;;;;;;3.65;1.20;;;15.70;58.70;;;;;;5052379;28;20392;-66
2022/06/20 02:51:06;;;;;;;3.92;1.33;;;15.70;58.70;;;;;;5052399;28;20091;-66
2022/06/20 02:53:38;;;;;;;4.18;0.98;;;15.60;58.70;;;;;;5051557;28;20112;-66
2022/06/20 02:56:06;;;;;;;3.40;1.38;;;15.60;58.70;;;;;;5051482;28;20037;-66
2022/06/20 02:58:35;;;;;;;3.33;1.10;;;15.60;58.70;;;;;;5052327;28;20116;-66
2022/06/20 03:01:07;;;;;;;3.72;1.17;;;15.60;58.70;;;;;;5051308;28;20041;-66
2022/06/20 03:03:38;;;;;;;3.05;0.95;;;15.60;58.70;;;;;;5052353;28;20112;-66
2022/06/20 03:06:06;;;;;;;3.28;1.20;;;15.50;58.70;;;;;;5051477;28;20667;-66
2022/06/20 03:08:32;;;;;;;2.65;1.00;;;15.50;59.10;;;;;;5050794;28;20048;-66
2022/06/20 03:11:04;;;;;;;3.08;0.98;;;15.50;58.70;;;;;;5051006;28;20049;-66
2022/06/20 03:13:31;;;;;;;0.77;0.70;;;15.50;58.70;;;;;;5051287;28;20081;-66
2022/06/20 03:16:01;;;;;;;2.60;0.90;;;15.50;58.80;;;;;;5051175;28;20048;-66
2022/06/20 03:18:26;;;;;;;3.22;0.88;;;15.40;58.80;;;;;;5052563;28;20523;-66
2022/06/20 03:20:52;;;;;;;3.05;1.17;;;15.40;58.80;;;;;;5050715;28;20037;-66
2022/06/20 03:23:27;;;;;;;4.88;1.50;;;15.40;59.10;;;;;;5052614;28;20033;-66
2022/06/20 03:25:55;;;;;;;4.47;1.27;;;15.40;58.80;;;;;;5052284;28;20037;-66
2022/06/20 03:28:22;;;;;;;2.30;1.00;;;15.30;58.80;;;;;;5052005;28;20057;-66
2022/06/20 03:30:49;;;;;;;3.03;1.00;;;15.30;58.80;;;;;;5050968;28;20089;-62
2022/06/20 03:33:16;;;;;;;6.78;1.38;;;15.30;59.20;;;;;;5052555;28;20041;-62
2022/06/20 03:35:51;;;;;;;3.40;0.80;;;15.30;58.90;;;;;;5050556;28;20040;-62
2022/06/20 03:38:18;;;;;;;5.50;1.23;;;15.20;58.90;;;;;;5051327;28;20438;-62
2022/06/20 03:40:43;;;;;;;2.55;0.93;;;15.20;58.90;;;;;;5050998;28;20476;-63
2022/06/20 03:43:13;;;;;;;2.75;1.00;;;15.20;58.90;;;;;;5050971;28;20102;-63
2022/06/20 03:45:43;;;;;;;2.17;1.08;;;15.10;58.90;;;;;;5050860;28;20052;-62
2022/06/20 03:48:19;;;;;;;3.58;1.20;;;15.10;59.00;;;;;;5052408;28;20116;-64
2022/06/20 03:50:54;;;;;;;5.88;1.52;;;15.10;59.00;;;;;;5050383;28;20084;-65
2022/06/20 03:53:33;;;;;;;3.08;0.93;;;15.10;59.10;;;;;;5052044;28;20041;-66
2022/06/20 03:56:07;;;;;;;3.53;1.08;;;15.10;59.20;;;;;;5054469;28;20045;-66
2022/06/20 03:58:38;;;;;;;3.40;1.30;;;15.00;59.10;;;;;;5056105;28;20052;-66
2022/06/20 04:01:10;;;;;;;2.85;1.00;;;15.00;59.10;;;;;;5055754;28;20041;-66
2022/06/20 04:03:54;;;;;;;3.22;1.30;;;15.00;59.10;;;;;;5055911;28;20112;-66
2022/06/20 04:06:29;;;;;;;4.00;1.47;;;14.90;59.10;;;;;;5045845;28;20045;-66
2022/06/20 04:12:07;;;;;;;4.90;1.15;;;14.90;59.20;;;;;;5049419;28;20055;-66
2022/06/20 04:14:55;;;;;;;1.60;0.98;;;14.80;59.20;;;;;;5055776;28;20041;-66
2022/06/20 04:20:46;;;;;;;2.80;1.05;;;14.80;59.40;;;;;;5053951;28;20126;-66
2022/06/20 04:23:22;;;;;;;4.80;1.50;;;14.80;59.60;;;;;;5055514;28;20112;-66
2022/06/20 04:25:58;;;;;;;5.75;1.55;;;14.70;59.70;;;;;;5054413;28;20039;-66
2022/06/20 04:28:38;;;;;;;4.13;1.35;;;14.70;59.90;;;;;;5055187;28;20128;-66
2022/06/20 04:31:39;;;;;;;6.57;1.88;;;14.70;60.00;;;;;;5053648;28;20107;-66
2022/06/20 04:34:18;;;;;;;3.08;1.27;;;14.70;60.10;;;;;;5054557;28;20431;-66
2022/06/20 04:36:56;;;;;;;4.05;1.58;;;14.70;60.40;;;;;;5055216;28;20424;-66
2022/06/20 04:39:24;;;;;;;4.75;1.50;;;14.70;60.60;;;;;;5055072;28;20052;-66
2022/06/20 04:42:01;;;;;;;2.85;1.25;;;14.70;60.70;;;;;;5054816;28;20124;-66
2022/06/20 04:44:49;;;;;;;4.10;1.38;;;14.70;60.80;;;;;;5055290;28;20439;-65
2022/06/20 04:47:46;;;;;;;4.25;1.60;;;14.70;60.90;;;;;;5046321;28;20033;-65
2022/06/20 04:50:22;;;;;;;4.25;1.38;;;14.70;60.90;;;;;;5053509;28;20036;-66
2022/06/20 04:52:50;;;;;;;4.35;1.40;;;14.70;61.00;;;;;;5055170;28;20178;-66
2022/06/20 04:55:21;;;;;;;4.95;1.92;;;14.70;61.00;;;;;;5055065;28;20551;-66
2022/06/20 04:57:48;;;;;;;4.95;1.58;;;14.70;61.20;;;;;;5053537;28;20076;-65
2022/06/20 05:00:24;;;;;;;4.70;1.55;;;14.70;61.20;;;;;;5054780;28;20389;-66
2022/06/20 05:02:53;;;;;;;6.57;1.92;;;14.80;61.30;;;;;;5048792;28;20072;-66
2022/06/20 05:05:27;;;;;;;5.60;2.08;;;14.80;61.70;;;;;;5053644;28;20400;-65
2022/06/20 05:07:53;;;;;;;4.28;2.00;;;14.80;61.90;;;;;;5054014;28;20171;-66
2022/06/20 05:10:22;;;;;;;5.78;1.90;;;14.80;61.90;;;;;;5053256;28;20036;-66
2022/06/20 05:13:04;;;;;;;3.08;1.45;;;14.90;62.30;;;;;;5053118;28;20056;-66
2022/06/20 05:15:29;;;;;;;7.28;2.78;;;15.00;62.70;;;;;;5054286;28;20729;-66
2022/06/20 05:17:58;;;;;;;5.63;2.38;;;15.10;63.00;;;;;;5053962;28;20047;-66
2022/06/20 05:20:35;;;;;;;6.15;2.20;;;15.30;63.50;;;;;;5053773;28;20589;-66
2022/06/20 05:23:13;;;;;;;5.45;2.35;;;15.60;62.80;;;;;;5045662;28;20223;-67
2022/06/20 05:25:40;;;;;;;6.05;2.10;;;15.90;62.50;;;;;;5054254;28;20158;-67
2022/06/20 05:28:17;;;;;;;5.20;2.00;;;16.30;61.70;;;;;;5051732;28;20069;-70
2022/06/20 05:30:44;;;;;;;5.07;2.00;;;16.80;60.60;;;;;;5053792;28;20091;-68
2022/06/20 05:33:22;;;;;;;6.65;2.28;;;17.30;60.00;;;;;;5051889;28;20037;-70
2022/06/20 05:35:57;;;;;;;7.15;2.17;;;17.80;58.80;;;;;;5043005;28;20073;-67
2022/06/20 05:38:39;;;;;;;8.30;2.28;;;18.20;58.00;;;;;;5050402;28;20036;-67
2022/06/20 05:41:07;;;;;;;6.60;2.10;;;18.60;57.30;;;;;;5046840;28;20032;-68
2022/06/20 05:43:34;;;;;;;7.53;2.30;;;19.10;56.70;;;;;;5053282;28;20112;-67
2022/06/20 05:46:13;;;;;;;6.03;1.92;;;19.40;55.80;;;;;;5053932;28;20036;-67
2022/06/20 05:48:53;;;;;;;4.90;1.90;;;19.80;55.20;;;;;;5052907;28;20041;-70
2022/06/20 05:51:22;;;;;;;4.25;1.75;;;20.20;54.00;;;;;;5035190;28;20722;-68
2022/06/20 05:53:56;;;;;;;6.80;1.75;;;20.60;53.30;;;;;;5048134;28;20579;-67
2022/06/20 05:56:30;;;;;;;7.75;2.17;;;20.90;52.30;;;;;;5044477;28;20033;-67
2022/06/20 05:58:57;;;;;;;6.45;2.45;;;21.30;51.30;;;;;;5052781;28;20037;-67
2022/06/20 06:01:34;;;;;;;5.85;2.08;;;21.60;50.80;;;;;;5052319;28;20044;-67
2022/06/20 06:04:31;;;;;;;6.13;2.10;;;21.80;50.00;;;;;;5052118;28;20108;-70
2022/06/20 06:07:01;;;;;;;7.32;2.50;;;22.10;49.90;;;;;;5052436;28;20045;-72
2022/06/20 06:09:39;;;;;;;7.60;2.45;;;22.30;49.40;;;;;;5052960;28;20409;-70
2022/06/20 06:12:13;;;;;;;6.22;2.40;;;22.50;48.70;;;;;;5052198;28;20067;-70
2022/06/20 06:14:48;;;;;;;6.22;2.25;;;22.80;47.90;;;;;;5052155;28;20661;-71
2022/06/20 06:17:23;;;;;;;5.80;2.63;;;23.00;47.20;;;;;;5051497;28;20515;-70
2022/06/20 06:19:59;;;;;;;6.15;2.60;;;23.10;46.70;;;;;;5052060;28;20047;-71
2022/06/20 06:22:37;;;;;;;6.50;2.17;;;23.20;46.30;;;;;;5052181;28;20071;-72
2022/06/20 06:25:15;;;;;;;7.25;2.30;;;23.30;46.20;;;;;;5052278;28;20045;-70
2022/06/20 06:27:43;;;;;;;6.70;2.67;;;23.30;45.70;;;;;;5050807;28;20110;-70
2022/06/20 06:30:18;;;;;;;8.98;2.60;;;23.30;45.80;;;;;;5068354;28;20516;-70
2022/06/20 06:33:20;;;;;;;5.88;2.20;;;23.20;45.70;;;;;;5035172;28;20056;-70
2022/06/20 06:35:56;;;;;;;7.22;2.80;;;23.10;45.50;;;;;;5051870;28;20041;-70
2022/06/20 06:38:35;;;;;;;6.47;2.13;;;23.00;45.30;;;;;;5051797;28;20076;-69
2022/06/20 06:41:06;;;;;;;8.60;2.70;;;22.80;45.40;;;;;;5051950;28;20473;-70
2022/06/20 06:43:38;;;;;;;10.18;2.50;;;22.60;45.20;;;;;;5051943;28;20088;-70
2022/06/20 06:46:13;;;;;;;8.48;2.65;;;22.40;45.40;;;;;;5051875;28;20044;-70
2022/06/20 06:49:05;;;;;;;6.72;2.10;;;22.20;45.80;;;;;;5051600;28;20044;-71
2022/06/20 06:52:04;;;;;;;7.78;2.95;;;21.90;45.70;;;;;;5051719;28;20087;-70
2022/06/20 06:54:42;;;;;;;6.38;1.83;;;21.80;46.20;;;;;;5021913;28;20049;-70
2022/06/20 06:57:26;;;;;;;5.65;1.85;;;21.60;46.40;;;;;;5043539;28;20037;-71
2022/06/20 07:00:02;;;;;;;7.30;2.40;;;21.50;46.50;;;;;;5031782;28;20083;-70
2022/06/20 07:02:31;;;;;;;10.10;2.63;;;21.30;46.50;;;;;;5047849;28;20052;-70
2022/06/20 07:04:59;;;;;;;7.90;2.47;;;21.20;46.50;;;;;;5052216;28;20040;-70
2022/06/20 07:07:35;;;;;;;6.10;2.00;;;21.10;47.00;;;;;;5035060;28;20489;-67
2022/06/20 07:10:02;;;;;;;5.75;1.90;;;21.10;47.10;;;;;;5052970;28;20037;-66
2022/06/20 07:12:31;;;;;;;5.45;1.77;;;21.10;47.00;;;;;;5052007;28;20049;-63
2022/06/20 07:15:14;;;;;;;5.68;1.80;;;21.10;46.90;;;;;;5052953;28;20416;-63
2022/06/20 07:17:56;;;;;;;5.65;2.20;;;21.20;47.40;;;;;;5052510;28;20432;-64
2022/06/20 07:20:26;;;;;;;4.57;1.92;;;21.20;47.60;;;;;;5052257;28;20037;-63
2022/06/20 07:22:53;;;;;;;5.45;2.53;;;21.40;47.70;;;;;;5064126;28;20049;-63
2022/06/20 07:25:35;;;;;;;7.72;2.15;;;21.60;47.80;;;;;;5032952;28;20049;-64
2022/06/20 07:28:18;;;;;;;6.45;1.83;;;21.80;46.70;;;;;;5037323;28;20408;-63
2022/06/20 07:30:48;;;;;;;4.28;1.55;;;22.10;46.20;;;;;;5056342;28;20120;-63
2022/06/20 07:33:25;;;;;;;8.02;2.40;;;22.30;46.40;;;;;;5056107;28;20040;-64
2022/06/20 07:35:56;;;;;;;5.22;1.80;;;22.60;46.00;;;;;;5056650;28;20052;-63
2022/06/20 07:38:23;;;;;;;4.95;1.88;;;22.80;44.70;;;;;;5055902;28;20052;-61
2022/06/20 07:41:03;;;;;;;6.60;2.25;;;22.90;44.60;;;;;;5055117;28;21001;-61
2022/06/20 07:43:56;;;;;;;5.60;1.95;;;23.10;44.40;;;;;;5056406;28;20361;-61
2022/06/20 07:46:43;;;;;;;5.30;1.98;;;23.20;43.80;;;;;;5054285;28;20029;-68
2022/06/20 07:49:15;;;;;;;6.75;2.50;;;23.30;44.20;;;;;;5054781;28;20047;-67
2022/06/20 07:51:45;;;;;;;7.60;2.17;;;23.40;43.70;;;;;;5056042;28;20048;-67
2022/06/20 07:54:20;;;;;;;6.03;2.20;;;23.50;43.30;;;;;;5047050;28;20045;-67
2022/06/20 07:56:52;;;;;;;6.78;2.40;;;23.50;42.90;;;;;;5054779;28;20067;-67
2022/06/20 07:59:44;;;;;;;7.43;2.20;;;23.50;43.10;;;;;;5059209;28;20049;-67
2022/06/20 08:02:22;;;;;;;6.03;1.95;;;23.60;42.50;;;;;;5035228;28;20041;-65
2022/06/20 08:04:52;;;;;;;4.97;1.60;;;23.60;41.80;;;;;;5051536;28;20443;-61
2022/06/20 08:07:44;;;;;;;4.38;1.88;;;23.60;41.00;;;;;;5054670;28;20114;-61
2022/06/20 08:10:23;;;;;;;6.72;2.47;;;23.60;40.90;;;;;;5054824;28;20048;-66
2022/06/20 08:13:09;;;;;;;8.13;2.10;;;23.50;41.10;;;;;;5055587;28;20087;-65
2022/06/20 08:15:59;;;;;;;4.45;1.90;;;23.50;41.10;;;;;;5035839;28;20547;-65
2022/06/20 08:18:25;;;;;;;5.20;1.70;;;23.40;41.80;;;;;;5037180;28;20087;-65
2022/06/20 08:21:10;;;;;;;3.28;1.48;;;23.30;41.80;;;;;;5055586;28;20051;-65
2022/06/20 08:23:44;;;;;;;4.40;2.25;;;23.30;41.60;;;;;;5055638;28;20507;-66
2022/06/20 08:26:16;;;;;;;7.55;1.95;;;23.30;42.00;;;;;;5055809;28;20033;-66
2022/06/20 08:28:54;;;;;;;7.05;2.13;;;23.40;42.00;;;;;;5054607;28;20408;-66
2022/06/20 08:31:31;;;;;;;4.25;1.80;;;23.40;42.30;;;;;;5054165;28;20048;-66
2022/06/20 08:34:01;;;;;;;5.82;2.05;;;23.50;42.60;;;;;;5052917;28;20106;-66
2022/06/20 08:36:45;;;;;;;6.40;1.67;;;23.50;42.40;;;;;;5052598;28;20042;-66
2022/06/20 08:39:27;;;;;;;2.72;1.10;;;23.60;41.60;;;;;;5040509;28;20318;-66
2022/06/20 08:42:28;;;;;;;4.63;1.45;;;23.60;41.00;;;;;;5053751;28;20052;-66
2022/06/20 08:45:32;;;;;;;3.90;1.15;;;23.60;41.40;;;;;;5052466;28;20087;-66
2022/06/20 08:48:29;;;;;;;2.80;1.17;;;23.80;41.60;;;;;;5053905;28;20040;-63
2022/06/20 08:51:01;;;;;;;3.35;1.30;;;23.90;41.80;;;;;;5053994;28;20076;-63
2022/06/20 08:53:29;;;;;;;6.68;1.48;;;24.00;40.80;;;;;;5052360;28;20037;-63
2022/06/20 08:56:05;;;;;;;2.70;1.00;;;24.10;40.50;;;;;;5052796;28;20041;-63
2022/06/20 08:58:37;;;;;;;3.58;1.10;;;24.20;40.30;;;;;;5053954;28;20041;-63
2022/06/20 09:01:23;;;;;;;4.90;1.42;;;24.30;40.20;;;;;;5052826;28;20045;-63
2022/06/20 09:04:07;;;;;;;5.05;1.20;;;24.40;39.90;;;;;;5053742;28;20045;-63
2022/06/20 09:06:54;;;;;;;2.83;1.05;;;24.50;39.20;;;;;;5034034;28;20042;-62
2022/06/20 09:09:50;;;;;;;4.00;1.30;;;24.50;39.30;;;;;;5044455;28;20488;-62
2022/06/20 09:12:49;;;;;;;4.40;1.42;;;24.40;39.30;;;;;;5053564;28;20049;-63
2022/06/20 09:15:59;;;;;;;3.15;1.13;;;24.30;39.70;;;;;;5053347;28;20037;-61
2022/06/20 09:18:24;;;;;;;3.47;1.00;;;24.20;39.40;;;;;;5052998;28;20036;-62
2022/06/20 09:21:08;;;;;;;3.83;1.23;;;24.10;39.60;;;;;;5053422;28;20040;-62
2022/06/20 09:24:02;;;;;;;4.80;1.27;;;24.10;39.90;;;;;;5052213;28;20123;-62
2022/06/20 09:26:45;;;;;;;5.38;1.02;;;24.10;39.90;;;;;;5035343;28;20091;-62
2022/06/20 09:29:28;;;;;;;4.45;1.40;;;24.10;39.70;;;;;;5014799;28;1120888;-66
2022/06/20 09:32:02;;;;;;;3.25;1.08;;;24.20;39.70;;;;;;5036634;28;20400;-65
2022/06/20 09:35:04;;;;;;;4.22;1.30;;;24.20;39.90;;;;;;5053014;28;20036;-65
2022/06/20 09:38:10;;;;;;;4.88;1.50;;;24.20;40.40;;;;;;5053354;28;20070;-66
2022/06/20 09:40:55;;;;;;;5.50;1.13;;;24.30;40.00;;;;;;5054129;28;20550;-66
2022/06/20 09:43:52;;;;;;;5.95;1.92;;;24.20;40.00;;;;;;5054183;28;20041;-66
2022/06/20 09:46:33;;;;;;;3.53;1.25;;;24.30;39.50;;;;;;5045527;28;20484;-66
2022/06/20 09:49:17;;;;;;;5.10;1.40;;;24.20;39.00;;;;;;5053137;28;20091;-66
2022/06/20 09:52:15;;;;;;;4.38;1.50;;;24.20;38.90;;;;;;5048077;28;20046;-66
2022/06/20 09:55:13;;;;;;;4.07;1.67;;;24.10;39.30;;;;;;5052581;28;20041;-66
2022/06/20 09:58:00;;;;;;;5.55;1.40;;;24.10;40.40;;;;;;5049355;28;20185;-66
2022/06/20 10:00:48;;;;;;;3.83;1.70;;;24.10;39.90;;;;;;5053327;28;20033;-66
2022/06/20 10:03:41;;;;;;;4.35;1.30;;;24.00;39.70;;;;;;5054105;28;20048;-65
2022/06/20 10:06:23;;;;;;;6.68;1.92;;;24.00;39.80;;;;;;5052550;28;20393;-65
2022/06/20 10:09:09;;;;;;;5.85;1.50;;;23.90;40.40;;;;;;5052528;28;20048;-66
2022/06/20 10:11:48;;;;;;;4.45;1.45;;;23.80;39.90;;;;;;5053371;28;20396;-65
2022/06/20 10:14:32;;;;;;;5.78;1.70;;;23.70;40.30;;;;;;5051005;28;20026;-66
2022/06/20 10:17:12;;;;;;;6.07;1.20;;;23.60;40.90;;;;;;5066611;28;20068;-66
2022/06/20 10:19:52;;;;;;;5.07;1.17;;;23.60;40.70;;;;;;5053544;28;20435;-66
2022/06/20 10:22:35;;;;;;;7.88;2.13;;;23.70;40.60;;;;;;5052169;28;20047;-66
2022/06/20 10:25:25;;;;;;;3.60;1.38;;;23.70;41.20;;;;;;5053528;28;20477;-66
2022/06/20 10:27:58;;;;;;;3.67;1.55;;;23.70;41.60;;;;;;5052690;28;20049;-66
2022/06/20 10:30:48;;;;;;;6.07;1.40;;;23.80;41.40;;;;;;5053511;28;20431;-66
2022/06/20 10:33:27;;;;;;;4.75;1.52;;;23.90;41.50;;;;;;5033449;28;20046;-66
2022/06/20 10:36:18;;;;;;;4.80;1.40;;;23.90;41.30;;;;;;5052337;28;20068;-65
2022/06/20 10:39:04;;;;;;;4.38;1.77;;;24.00;41.00;;;;;;5053022;28;20053;-66
2022/06/20 10:41:49;;;;;;;3.13;1.13;;;24.10;40.90;;;;;;5052612;28;20524;-66
2022/06/20 10:44:23;;;;;;;5.47;1.60;;;24.20;40.70;;;;;;5053065;28;20048;-66
2022/06/20 10:47:04;;;;;;;4.68;1.45;;;24.30;40.80;;;;;;5051915;28;20377;-65
2022/06/20 10:49:47;;;;;;;5.00;1.50;;;24.30;40.30;;;;;;5053077;28;20052;-66
2022/06/20 10:52:51;;;;;;;3.70;1.30;;;24.20;40.00;;;;;;5052625;28;20090;-67
2022/06/20 10:55:43;;;;;;;4.80;1.58;;;24.20;39.40;;;;;;5052943;28;20039;-66
2022/06/20 10:58:27;;;;;;;4.97;1.50;;;24.00;39.60;;;;;;5050808;28;20400;-66
2022/06/20 11:00:55;;;;;;;;;;;23.90;40.40;;;;;;5050953;28;20481;-66
2022/06/20 11:03:39;;;;;;;6.07;2.95;;;23.90;40.40;;;;;;5039774;28;19970;-66
2022/06/20 11:06:17;;;;;;;6.03;1.90;;;23.90;40.10;;;;;;5051150;28;20115;-66
2022/06/20 11:08:52;;;;;;;6.70;2.00;;;23.80;40.00;;;;;;5052853;28;20048;-67
2022/06/20 11:11:39;;;;;;;6.22;1.80;;;23.80;40.80;;;;;;5052442;28;20083;-66
2022/06/20 11:14:28;;;;;;;5.38;1.90;;;23.80;41.50;;;;;;5051820;28;20385;-69
2022/06/20 11:17:15;;;;;;;5.18;2.05;;;23.90;41.60;;;;;;5050646;28;20040;-67
2022/06/20 11:19:58;;;;;;;5.78;1.75;;;23.90;41.40;;;;;;5051425;28;20431;-66
2022/06/20 11:22:43;;;;;;;6.80;1.90;;;23.90;40.90;;;;;;5052389;28;20468;-67
2022/06/20 11:25:29;;;;;;;5.90;1.60;;;23.90;41.00;;;;;;5052648;28;20087;-66
2022/06/20 11:28:19;;;;;;;4.10;1.73;;;24.00;40.90;;;;;;5052176;28;20478;-69
2022/06/20 11:31:02;;;;;;;4.03;1.17;;;23.90;40.90;;;;;;5051257;28;20057;-67
2022/06/20 11:36:34;;;;;;;5.05;1.60;;;23.90;39.20;;;;;;5052568;28;20049;-66
2022/06/20 11:39:24;;;;;;;4.80;1.90;;;23.90;39.60;;;;;;5051346;28;20372;-66
2022/06/20 11:42:09;;;;;;;7.25;1.95;;;23.90;40.50;;;;;;5052358;28;20086;-66
2022/06/20 11:45:07;;;;;;;8.43;2.58;;;23.90;40.20;;;;;;5032628;28;20056;-67
2022/06/20 11:47:42;;;;;;;5.68;1.52;;;23.90;40.80;;;;;;5039922;28;20037;-67
2022/06/20 11:50:19;;;;;;;3.80;1.50;;;23.80;40.80;;;;;;5051474;28;20049;-67
2022/06/20 11:52:58;;;;;;;5.43;1.75;;;23.80;41.10;;;;;;5052238;28;20045;-67
2022/06/20 11:55:37;;;;;;;8.80;1.88;;;23.70;40.70;;;;;;5051214;28;20075;-67
2022/06/20 11:58:25;;;;;;;7.65;1.70;;;23.60;40.20;;;;;;5052387;28;20431;-63
2022/06/20 12:01:27;;;;;;;5.97;1.50;;;23.50;40.40;;;;;;5050869;28;20041;-65
2022/06/20 12:04:08;;;;;;;5.95;1.48;;;23.50;40.90;;;;;;5042568;28;20084;-64
2022/06/20 12:06:57;;;;;;;5.47;1.70;;;23.40;40.70;;;;;;5050937;28;20047;-63
2022/06/20 12:09:53;;;;;;;2.53;1.23;;;23.40;41.00;;;;;;5051180;28;20044;-64
2022/06/20 12:12:41;;;;;;;3.05;1.10;;;23.30;40.20;;;;;;5034099;28;20510;-63
2022/06/20 12:15:25;;;;;;;4.65;1.10;;;23.30;40.10;;;;;;5051910;28;20041;-64
2022/06/20 12:18:31;;;;;;;3.35;1.13;;;23.30;40.10;;;;;;5054418;28;20488;-64
2022/06/20 12:24:16;;;;;;;3.83;1.15;;;23.30;39.70;;;;;;5054225;28;20060;-67
2022/06/20 12:26:42;;;;;;;3.67;1.40;;;23.30;39.70;;;;;;5051234;28;20061;-67
2022/06/20 12:29:17;;;;;;;4.43;1.38;;;23.20;40.00;;;;;;5054223;28;20053;-67
2022/06/20 12:31:48;;;;;;;5.80;1.75;;;23.20;40.30;;;;;;5055577;28;20389;-67
2022/06/20 12:34:16;;;;;;;4.63;1.70;;;23.10;40.60;;;;;;5055273;28;20048;-67
2022/06/20 12:36:57;;;;;;;6.13;2.00;;;23.10;40.90;;;;;;5055534;28;20120;-67
2022/06/20 12:39:27;;;;;;;5.35;1.45;;;23.00;41.20;;;;;;5055307;28;20029;-68
2022/06/20 12:42:05;;;;;;;3.75;1.40;;;23.00;40.80;;;;;;5055408;28;20110;-67
2022/06/20 12:45:09;;;;;;;3.38;1.50;;;23.00;40.80;;;;;;5055182;28;20388;-67
2022/06/20 12:48:05;;;;;;;6.57;2.05;;;22.90;41.20;;;;;;5046292;28;20045;-66
2022/06/20 12:50:54;;;;;;;6.05;1.60;;;22.90;41.10;;;;;;5035423;28;20046;-67
2022/06/20 12:53:30;;;;;;;4.72;1.50;;;22.80;41.30;;;;;;5039317;28;20555;-67
2022/06/20 12:56:17;;;;;;;3.97;1.50;;;22.80;41.70;;;;;;5053915;28;20062;-66
2022/06/20 12:59:20;;;;;;;5.47;1.60;;;22.70;41.40;;;;;;5053443;28;20043;-66
2022/06/20 13:02:18;;;;;;;2.33;1.10;;;22.60;40.80;;;;;;5053762;28;20083;-66
2022/06/20 13:05:20;;;;;;;3.10;1.30;;;22.60;40.90;;;;;;5054064;28;20052;-67
2022/06/20 13:08:09;;;;;;;3.60;1.10;;;22.50;41.00;;;;;;5044663;28;20049;-67
2022/06/20 13:10:59;;;;;;;4.30;1.42;;;22.50;40.80;;;;;;5035172;28;20049;-66
2022/06/20 13:13:53;;;;;;;3.45;1.45;;;22.50;41.30;;;;;;5037061;28;20508;-67
2022/06/20 13:16:27;;;;;;;5.20;1.65;;;22.50;41.90;;;;;;5054979;28;20037;-67
2022/06/20 13:19:27;;;;;;;4.30;1.73;;;22.50;42.90;;;;;;5054529;28;20045;-67
2022/06/20 13:22:02;;;;;;;4.93;1.33;;;22.50;42.70;;;;;;5042285;28;20511;-67
2022/06/20 13:24:49;;;;;;;2.47;1.30;;;22.50;42.50;;;;;;5052531;28;20043;-67
2022/06/20 13:27:36;;;;;;;4.07;1.50;;;22.60;41.60;;;;;;5033234;28;20092;-67
2022/06/20 13:30:14;;;;;;;3.15;1.38;;;22.60;41.40;;;;;;5046659;28;20045;-67
2022/06/20 13:32:51;;;;;;;4.55;1.20;;;22.60;40.80;;;;;;5054338;28;20480;-67
2022/06/20 13:35:44;;;;;;;3.85;1.35;;;22.70;41.10;;;;;;5053224;28;20041;-67
2022/06/20 13:38:19;;;;;;;2.58;1.25;;;22.80;41.20;;;;;;5054626;28;20482;-67
2022/06/20 13:41:05;;;;;;;5.05;1.63;;;22.80;41.40;;;;;;5054239;28;20052;-67
2022/06/20 13:43:51;;;;;;;3.28;1.30;;;22.90;41.60;;;;;;5054376;28;20055;-67
2022/06/20 13:46:43;;;;;;;3.40;1.30;;;22.90;41.50;;;;;;5033304;28;20054;-66
2022/06/20 13:49:29;;;;;;;6.93;1.90;;;22.90;41.20;;;;;;5037604;28;20059;-63
2022/06/20 13:52:06;;;;;;;2.88;1.17;;;23.00;41.40;;;;;;5054026;28;20043;-63
2022/06/20 13:54:41;;;;;;;3.92;1.17;;;23.00;41.60;;;;;;5053451;28;20127;-63
2022/06/20 13:57:30;;;;;;;7.57;1.90;;;22.90;41.70;;;;;;5054307;28;20102;-63
2022/06/20 14:00:24;;;;;;;3.45;1.40;;;23.00;41.40;;;;;;5035851;28;20080;-63
2022/06/20 14:03:14;;;;;;;3.53;1.20;;;23.00;41.80;;;;;;5051193;28;20396;-63